createdAt,value
2018-02-04T00:02:22.058Z,8.38
2018-02-04T00:04:51.304Z,4.93
2018-02-04T00:07:20.223Z,9.57
2018-02-04T00:09:48.269Z,9.50
2018-02-04T00:12:16.323Z,6.60
2018-02-04T00:14:44.363Z,6.65
2018-02-04T00:17:12.392Z,9.25
2018-02-04T00:19:40.837Z,11.02
2018-02-04T00:22:08.886Z,10.15
2018-02-04T00:24:37.696Z,12.55
2018-02-04T00:27:06.896Z,7.15
2018-02-04T00:29:35.680Z,7.55
2018-02-04T00:32:03.741Z,6.07
2018-02-04T00:34:31.775Z,6.15
2018-02-04T00:37:00.608Z,6.32
2018-02-04T00:39:28.714Z,9.07
2018-02-04T00:41:56.752Z,14.65
2018-02-04T00:44:24.817Z,8.90
2018-02-04T00:46:53.693Z,6.72
2018-02-04T00:49:21.751Z,9.05
2018-02-04T00:51:49.780Z,7.55
2018-02-04T00:54:18.598Z,9.27
2018-02-04T00:56:47.411Z,8.95
2018-02-04T00:59:15.443Z,6.50
2018-02-04T01:01:43.500Z,5.90
2018-02-04T01:04:11.531Z,8.90
2018-02-04T01:06:39.617Z,7.40
2018-02-04T01:09:07.667Z,6.75
2018-02-04T01:11:35.698Z,8.15
2018-02-04T01:14:04.509Z,6.95
2018-02-04T01:16:32.541Z,8.75
2018-02-04T01:19:00.588Z,5.43
2018-02-04T01:21:28.624Z,15.50
2018-02-04T01:23:56.682Z,4.70
2018-02-04T01:26:24.704Z,8.07
2018-02-04T01:28:53.521Z,6.53
2018-02-04T01:31:22.296Z,5.15
2018-02-04T01:33:51.069Z,5.55
2018-02-04T01:36:19.051Z,6.00
2018-02-04T01:38:47.060Z,7.87
2018-02-04T01:41:15.834Z,8.85
2018-02-04T01:43:43.837Z,6.47
2018-02-04T01:46:11.853Z,7.70
2018-02-04T01:48:39.860Z,5.45
2018-02-04T01:51:07.852Z,4.32
2018-02-04T01:53:35.864Z,7.35
2018-02-04T01:56:03.880Z,5.72
2018-02-04T01:58:32.683Z,7.57
2018-02-04T02:01:00.698Z,5.85
2018-02-04T02:03:28.708Z,6.35
2018-02-04T02:05:56.711Z,6.65
2018-02-04T02:08:24.707Z,6.00
2018-02-04T02:10:52.720Z,8.18
2018-02-04T02:13:20.719Z,6.55
2018-02-04T02:15:48.733Z,7.90
2018-02-04T02:18:16.736Z,7.18
2018-02-04T02:20:44.768Z,7.72
2018-02-04T02:23:12.797Z,6.35
2018-02-04T02:25:41.573Z,7.93
2018-02-04T02:28:09.565Z,7.50
2018-02-04T02:30:38.594Z,8.27
2018-02-04T02:33:07.356Z,8.75
2018-02-04T02:35:35.365Z,7.57
2018-02-04T02:38:04.141Z,6.97
2018-02-04T02:40:32.143Z,9.80
2018-02-04T02:43:00.956Z,12.20
2018-02-04T02:45:29.741Z,6.55
2018-02-04T02:47:57.762Z,8.38
2018-02-04T02:50:25.780Z,4.85
2018-02-04T02:52:53.775Z,5.85
2018-02-04T02:55:21.788Z,6.45
2018-02-04T02:57:50.546Z,7.40
2018-02-04T03:00:18.557Z,7.37
2018-02-04T03:02:46.560Z,8.80
2018-02-04T03:05:14.557Z,9.68
2018-02-04T03:07:42.572Z,10.00
2018-02-04T03:10:10.608Z,6.07
2018-02-04T03:12:38.629Z,6.22
2018-02-04T03:15:06.636Z,6.70
2018-02-04T03:17:35.555Z,10.60
2018-02-04T03:20:03.557Z,7.18
2018-02-04T03:22:32.323Z,7.62
2018-02-04T03:25:00.372Z,6.50
2018-02-04T03:27:28.368Z,6.50
2018-02-04T03:29:56.378Z,6.60
2018-02-04T03:32:24.380Z,7.18
2018-02-04T03:34:53.140Z,6.28
2018-02-04T03:37:21.152Z,4.30
2018-02-04T03:39:50.085Z,7.80
2018-02-04T03:42:18.081Z,6.60
2018-02-04T03:44:46.097Z,6.18
2018-02-04T03:47:14.104Z,10.60
2018-02-04T03:49:42.120Z,5.28
2018-02-04T03:52:11.049Z,5.62
2018-02-04T03:54:39.088Z,5.35
2018-02-04T03:57:07.851Z,10.45
2018-02-04T03:59:35.851Z,10.60
2018-02-04T04:02:03.851Z,7.37
2018-02-04T04:04:32.624Z,8.80
2018-02-04T04:07:00.621Z,9.38
2018-02-04T04:09:30.132Z,8.30
2018-02-04T04:11:58.128Z,5.10
2018-02-04T04:14:26.144Z,4.93
2018-02-04T04:16:54.773Z,9.40
2018-02-04T04:19:22.771Z,11.57
2018-02-04T04:21:50.779Z,8.18
2018-02-04T04:24:19.553Z,7.45
2018-02-04T04:26:47.544Z,6.62
2018-02-04T04:29:15.880Z,5.32
2018-02-04T04:31:43.892Z,6.53
2018-02-04T04:34:11.908Z,6.70
2018-02-04T04:36:39.932Z,7.18
2018-02-04T04:39:07.944Z,8.18
2018-02-04T04:41:35.944Z,9.13
2018-02-04T04:44:03.948Z,8.52
2018-02-04T04:46:32.728Z,7.62
2018-02-04T04:49:00.723Z,9.25
2018-02-04T04:51:28.744Z,10.45
2018-02-04T04:53:56.744Z,5.75
2018-02-04T04:56:24.732Z,5.45
2018-02-04T04:58:52.737Z,6.87
2018-02-04T05:01:20.744Z,10.30
2018-02-04T05:03:48.747Z,7.85
2018-02-04T05:06:16.760Z,6.65
2018-02-04T05:08:45.252Z,6.22
2018-02-04T05:11:13.268Z,6.82
2018-02-04T05:13:41.304Z,8.02
2018-02-04T05:16:10.056Z,7.50
2018-02-04T05:18:38.056Z,7.28
2018-02-04T05:21:07.780Z,5.35
2018-02-04T05:23:35.775Z,9.40
2018-02-04T05:26:04.534Z,8.18
2018-02-04T05:28:32.543Z,8.93
2018-02-04T05:31:01.312Z,4.53
2018-02-04T05:33:29.313Z,5.78
2018-02-04T05:35:58.836Z,8.10
2018-02-04T05:38:26.839Z,5.65
2018-02-04T05:40:55.605Z,8.80
2018-02-04T05:43:23.612Z,8.82
2018-02-04T05:45:52.401Z,8.07
2018-02-04T05:48:20.380Z,6.78
2018-02-04T05:50:48.404Z,13.27
2018-02-04T05:53:16.420Z,6.07
2018-02-04T05:55:44.412Z,8.02
2018-02-04T05:58:12.424Z,7.90
2018-02-04T06:00:41.632Z,5.22
2018-02-04T06:03:10.444Z,9.73
2018-02-04T06:05:39.248Z,7.80
2018-02-04T06:08:08.030Z,8.23
2018-02-04T06:10:36.017Z,8.80
2018-02-04T06:13:04.015Z,9.88
2018-02-04T06:15:32.796Z,8.50
2018-02-04T06:18:00.788Z,9.82
2018-02-04T06:20:30.449Z,10.55
2018-02-04T06:22:58.444Z,9.43
2018-02-04T06:25:26.442Z,11.63
2018-02-04T06:27:54.448Z,9.50
2018-02-04T06:30:22.469Z,12.00
2018-02-04T06:32:50.464Z,13.70
2018-02-04T06:35:18.473Z,9.38
2018-02-04T06:37:46.481Z,9.70
2018-02-04T06:40:14.476Z,14.20
2018-02-04T06:42:43.264Z,15.60
2018-02-04T06:45:11.301Z,16.70
2018-02-04T06:47:39.324Z,14.48
2018-02-04T06:50:07.336Z,15.90
2018-02-04T06:52:35.355Z,14.32
2018-02-04T06:55:03.344Z,21.85
2018-02-04T06:57:31.361Z,15.88
2018-02-04T06:59:59.365Z,15.35
2018-02-04T07:02:28.135Z,19.60
2018-02-04T07:04:56.144Z,16.90
2018-02-04T07:07:24.930Z,18.65
2018-02-04T07:09:52.932Z,21.15
2018-02-04T07:12:21.704Z,21.08
2018-02-04T07:14:49.728Z,21.15
2018-02-04T07:17:17.724Z,15.68
2018-02-04T07:19:45.733Z,17.02
2018-02-04T07:22:13.752Z,21.40
2018-02-04T07:24:41.768Z,31.12
2018-02-04T07:27:09.776Z,24.10
2018-02-04T07:29:37.813Z,27.45
2018-02-04T07:32:05.805Z,19.75
2018-02-04T07:34:33.820Z,24.77
2018-02-04T07:37:01.833Z,17.90
2018-02-04T07:39:29.836Z,19.95
2018-02-04T07:41:57.856Z,20.45
2018-02-04T07:44:25.886Z,32.78
2018-02-04T07:46:53.916Z,23.05
2018-02-04T07:49:22.692Z,27.20
2018-02-04T07:51:50.722Z,26.10
2018-02-04T07:54:18.715Z,20.85
2018-02-04T07:56:46.732Z,22.58
2018-02-04T07:59:14.752Z,21.23
2018-02-04T08:01:42.768Z,25.75
2018-02-04T08:04:10.797Z,30.08
2018-02-04T08:06:39.583Z,21.83
2018-02-04T08:09:07.579Z,20.08
2018-02-04T08:11:35.596Z,24.37
2018-02-04T08:14:03.608Z,21.33
2018-02-04T08:16:31.615Z,25.65
2018-02-04T08:18:59.631Z,22.27
2018-02-04T08:21:28.420Z,24.00
2018-02-04T08:23:57.188Z,26.40
2018-02-04T08:26:25.212Z,23.60
2018-02-04T08:28:53.983Z,25.27
2018-02-04T08:31:21.987Z,28.25
2018-02-04T08:33:50.769Z,26.40
2018-02-04T08:36:18.788Z,28.40
2018-02-04T08:38:46.784Z,22.05
2018-02-04T08:41:14.808Z,27.00
2018-02-04T08:43:43.597Z,21.60
2018-02-04T08:46:11.601Z,23.55
2018-02-04T08:48:39.631Z,19.48
2018-02-04T08:51:08.392Z,20.12
2018-02-04T08:53:36.435Z,28.42
2018-02-04T08:56:04.504Z,21.05
2018-02-04T08:58:32.531Z,26.23
2018-02-04T09:01:00.597Z,25.15
2018-02-04T09:03:28.620Z,31.67
2018-02-04T09:05:56.645Z,23.27
2018-02-04T09:08:24.624Z,27.85
2018-02-04T09:10:52.646Z,22.15
2018-02-04T09:13:20.648Z,22.02
2018-02-04T09:15:49.413Z,26.95
2018-02-04T09:18:17.434Z,28.17
2018-02-04T09:20:45.432Z,30.30
2018-02-04T09:23:14.221Z,21.00
2018-02-04T09:25:42.236Z,19.95
2018-02-04T09:28:10.263Z,22.85
2018-02-04T09:30:38.276Z,26.23
2018-02-04T09:33:07.063Z,25.90
2018-02-04T09:35:35.129Z,16.73
2018-02-04T09:38:04.631Z,15.95
2018-02-04T09:40:32.632Z,14.87
2018-02-04T09:43:00.654Z,19.50
2018-02-04T09:45:29.448Z,16.37
2018-02-04T09:47:58.222Z,15.73
2018-02-04T09:50:26.227Z,16.85
2018-02-04T09:52:54.989Z,16.83
2018-02-04T09:55:23.005Z,17.48
2018-02-04T09:57:51.033Z,17.33
2018-02-04T10:00:19.026Z,15.93
2018-02-04T10:02:47.027Z,12.75
2018-02-04T10:05:15.040Z,18.77
2018-02-04T10:07:43.800Z,21.48
2018-02-04T10:10:11.815Z,18.42
2018-02-04T10:12:39.836Z,16.60
2018-02-04T10:15:07.831Z,22.45
2018-02-04T10:17:35.867Z,15.45
2018-02-04T10:20:04.656Z,14.05
2018-02-04T10:22:32.676Z,14.00
2018-02-04T10:25:00.692Z,17.83
2018-02-04T10:27:28.696Z,18.17
2018-02-04T10:29:56.687Z,16.27
2018-02-04T10:32:24.708Z,17.45
2018-02-04T10:34:52.728Z,16.87
2018-02-04T10:37:20.861Z,20.77
2018-02-04T10:39:48.857Z,13.95
2018-02-04T10:42:16.903Z,14.87
2018-02-04T10:44:45.501Z,16.45
2018-02-04T10:47:13.496Z,18.30
2018-02-04T10:49:41.595Z,14.82
2018-02-04T10:52:11.133Z,15.75
2018-02-04T10:54:39.148Z,18.23
2018-02-04T10:57:07.174Z,16.15
2018-02-04T10:59:35.928Z,14.18
2018-02-04T11:02:03.949Z,14.57
2018-02-04T11:04:31.954Z,15.43
2018-02-04T11:06:59.945Z,15.07
2018-02-04T11:09:27.950Z,16.83
2018-02-04T11:11:55.957Z,13.73
2018-02-04T11:14:23.956Z,11.27
2018-02-04T11:16:51.965Z,12.68
2018-02-04T11:19:19.973Z,12.20
2018-02-04T11:21:47.972Z,11.45
2018-02-04T11:24:15.980Z,14.87
2018-02-04T11:26:44.169Z,15.27
2018-02-04T11:29:12.229Z,17.02
2018-02-04T11:31:40.216Z,13.13
2018-02-04T11:34:08.224Z,14.65
2018-02-04T11:36:36.985Z,15.07
2018-02-04T11:39:04.984Z,13.82
2018-02-04T11:41:33.009Z,20.88
2018-02-04T11:44:01.778Z,16.27
2018-02-04T11:46:30.868Z,18.20
2018-02-04T11:49:01.735Z,18.40
2018-02-04T11:51:30.475Z,17.20
2018-02-04T11:53:59.453Z,17.92
2018-02-04T11:56:28.236Z,16.17
2018-02-04T11:58:56.244Z,22.67
2018-02-04T12:01:25.029Z,17.23
2018-02-04T12:03:53.004Z,12.45
2018-02-04T12:06:21.020Z,13.62
2018-02-04T12:08:49.783Z,20.30
2018-02-04T12:11:17.804Z,13.15
2018-02-04T12:13:46.584Z,15.52
2018-02-04T12:16:14.592Z,14.70
2018-02-04T12:18:43.347Z,16.25
2018-02-04T12:21:11.364Z,16.67
2018-02-04T12:23:40.151Z,13.85
2018-02-04T12:26:08.179Z,13.10
2018-02-04T12:28:36.188Z,22.60
2018-02-04T12:31:04.191Z,13.35
2018-02-04T12:33:32.184Z,15.48
2018-02-04T12:36:00.196Z,18.33
2018-02-04T12:38:28.964Z,16.58
2018-02-04T12:40:56.968Z,20.42
2018-02-04T12:43:25.792Z,12.37
2018-02-04T12:45:53.967Z,18.15
2018-02-04T12:48:21.936Z,15.40
2018-02-04T12:50:50.704Z,13.13
2018-02-04T12:53:18.704Z,13.45
2018-02-04T12:55:46.756Z,11.70
2018-02-04T12:58:14.748Z,15.70
2018-02-04T13:00:42.815Z,14.90
2018-02-04T13:03:10.813Z,13.57
2018-02-04T13:05:38.831Z,14.35
2018-02-04T13:08:07.616Z,13.65
2018-02-04T13:10:35.631Z,15.43
2018-02-04T13:13:04.387Z,14.90
2018-02-04T13:15:32.392Z,12.93
2018-02-04T13:18:01.153Z,13.30
2018-02-04T13:20:29.168Z,15.27
2018-02-04T13:22:57.180Z,14.63
2018-02-04T13:25:25.182Z,17.00
2018-02-04T13:27:53.199Z,18.30
2018-02-04T13:30:21.359Z,19.73
2018-02-04T13:32:49.353Z,14.27
2018-02-04T13:35:17.368Z,16.50
2018-02-04T13:37:45.388Z,12.55
2018-02-04T13:40:13.400Z,15.52
2018-02-04T13:42:41.414Z,13.40
2018-02-04T13:45:10.336Z,14.27
2018-02-04T13:47:38.412Z,13.27
2018-02-04T13:50:07.391Z,14.52
2018-02-04T13:52:35.421Z,21.50
2018-02-04T13:55:03.478Z,15.57
2018-02-04T13:57:31.492Z,12.00
2018-02-04T13:59:59.804Z,13.95
2018-02-04T14:02:27.791Z,11.77
2018-02-04T14:04:55.796Z,12.55
2018-02-04T14:07:23.809Z,16.58
2018-02-04T14:09:52.572Z,16.42
2018-02-04T14:12:20.579Z,20.00
2018-02-04T14:14:48.594Z,13.45
2018-02-04T14:17:17.392Z,14.10
2018-02-04T14:19:45.380Z,15.23
2018-02-04T14:22:13.613Z,13.23
2018-02-04T14:24:41.613Z,16.65
2018-02-04T14:27:09.636Z,14.20
2018-02-04T14:29:37.649Z,12.52
2018-02-04T14:32:05.652Z,12.55
2018-02-04T14:34:33.663Z,13.73
2018-02-04T14:37:02.441Z,18.65
2018-02-04T14:39:30.928Z,15.23
2018-02-04T14:41:58.920Z,13.68
2018-02-04T14:44:26.920Z,13.15
2018-02-04T14:46:55.696Z,13.50
2018-02-04T14:49:23.703Z,11.00
2018-02-04T14:51:52.492Z,15.75
2018-02-04T14:54:20.963Z,11.20
2018-02-04T14:56:48.960Z,13.18
2018-02-04T14:59:16.968Z,11.40
2018-02-04T15:01:45.728Z,13.13
2018-02-04T15:04:13.740Z,12.30
2018-02-04T15:06:41.756Z,10.20
2018-02-04T15:09:09.740Z,9.90
2018-02-04T15:11:37.744Z,13.05
2018-02-04T15:14:05.752Z,10.95
2018-02-04T15:16:33.748Z,12.70
2018-02-04T15:19:01.764Z,9.68
2018-02-04T15:21:29.760Z,15.88
2018-02-04T15:23:57.785Z,12.50
2018-02-04T15:26:26.747Z,11.18
2018-02-04T15:28:54.751Z,9.80
2018-02-04T15:31:22.739Z,11.65
2018-02-04T15:33:50.737Z,12.95
2018-02-04T15:36:18.747Z,17.20
2018-02-04T15:38:46.740Z,20.40
2018-02-04T15:41:15.707Z,9.85
2018-02-04T15:43:43.703Z,12.35
2018-02-04T15:46:11.716Z,14.38
2018-02-04T15:48:39.739Z,9.70
2018-02-04T15:51:08.519Z,10.75
2018-02-04T15:53:36.495Z,11.52
2018-02-04T15:56:04.500Z,11.18
2018-02-04T15:58:32.522Z,8.85
2018-02-04T16:01:00.530Z,10.25
2018-02-04T16:03:29.288Z,13.38
2018-02-04T16:05:58.040Z,13.00
2018-02-04T16:08:26.032Z,11.00
2018-02-04T16:10:54.028Z,13.32
2018-02-04T16:13:22.045Z,14.35
2018-02-04T16:15:50.040Z,9.70
2018-02-04T16:18:18.032Z,7.45
2018-02-04T16:20:46.828Z,11.98
2018-02-04T16:23:15.593Z,10.60
2018-02-04T16:25:43.658Z,14.32
2018-02-04T16:28:12.935Z,9.13
2018-02-04T16:30:41.720Z,10.32
2018-02-04T16:33:09.875Z,11.48
2018-02-04T16:35:37.884Z,13.32
2018-02-04T16:38:06.689Z,15.68
2018-02-04T16:40:34.711Z,15.15
2018-02-04T16:43:02.712Z,12.48
2018-02-04T16:45:30.700Z,14.73
2018-02-04T16:47:58.720Z,11.57
2018-02-04T16:50:26.723Z,11.27
2018-02-04T16:52:55.485Z,18.15
2018-02-04T16:55:23.495Z,16.08
2018-02-04T16:57:52.264Z,11.15
2018-02-04T17:00:20.248Z,8.82
2018-02-04T17:02:48.260Z,11.93
2018-02-04T17:05:17.044Z,12.48
2018-02-04T17:07:45.165Z,14.77
2018-02-04T17:10:13.933Z,11.55
2018-02-04T17:12:41.948Z,11.10
2018-02-04T17:15:09.996Z,11.70
2018-02-04T17:17:37.997Z,16.40
2018-02-04T17:20:06.772Z,16.00
2018-02-04T17:22:34.765Z,10.02
2018-02-04T17:25:02.775Z,9.68
2018-02-04T17:27:31.552Z,10.70
2018-02-04T17:29:59.556Z,11.38
2018-02-04T17:32:28.320Z,15.43
2018-02-04T17:34:56.320Z,10.82
2018-02-04T17:37:24.319Z,13.38
2018-02-04T17:39:53.106Z,15.95
2018-02-04T17:42:21.112Z,11.73
2018-02-04T17:44:49.109Z,10.73
2018-02-04T17:47:17.183Z,11.75
2018-02-04T17:49:45.251Z,12.50
2018-02-04T17:52:13.260Z,15.43
2018-02-04T17:54:41.301Z,14.27
2018-02-04T17:57:10.834Z,10.57
2018-02-04T17:59:38.812Z,10.98
2018-02-04T18:02:06.808Z,12.23
2018-02-04T18:04:35.579Z,11.48
2018-02-04T18:07:03.593Z,11.20
2018-02-04T18:09:32.351Z,8.15
2018-02-04T18:12:00.357Z,11.90
2018-02-04T18:14:29.120Z,9.73
2018-02-04T18:16:57.139Z,12.70
2018-02-04T18:19:25.144Z,12.30
2018-02-04T18:21:53.172Z,11.12
2018-02-04T18:24:21.184Z,12.25
2018-02-04T18:26:49.187Z,8.63
2018-02-04T18:29:17.952Z,12.45
2018-02-04T18:31:45.957Z,11.18
2018-02-04T18:34:14.737Z,10.32
2018-02-04T18:36:42.724Z,8.68
2018-02-04T18:39:10.773Z,13.70
2018-02-04T18:41:38.781Z,11.00
2018-02-04T18:44:06.788Z,14.60
2018-02-04T18:46:34.814Z,11.38
2018-02-04T18:49:02.820Z,11.27
2018-02-04T18:51:30.811Z,11.55
2018-02-04T18:53:58.828Z,9.80
2018-02-04T18:56:27.600Z,10.77
2018-02-04T18:58:55.587Z,11.75
2018-02-04T19:01:23.587Z,7.95
2018-02-04T19:03:52.516Z,11.80
2018-02-04T19:06:20.500Z,10.45
2018-02-04T19:08:48.528Z,12.73
2018-02-04T19:11:16.531Z,9.32
2018-02-04T19:13:44.528Z,11.20
2018-02-04T19:16:13.297Z,10.52
2018-02-04T19:18:41.341Z,9.95
2018-02-04T19:21:09.377Z,8.80
2018-02-04T19:23:37.385Z,10.32
2018-02-04T19:26:06.168Z,11.82
2018-02-04T19:28:34.152Z,11.80
2018-02-04T19:31:02.160Z,11.00
2018-02-04T19:33:30.188Z,9.80
2018-02-04T19:35:58.184Z,10.48
2018-02-04T19:38:26.189Z,16.75
2018-02-04T19:40:54.964Z,9.93
2018-02-04T19:43:22.968Z,7.72
2018-02-04T19:45:51.742Z,13.70
2018-02-04T19:48:19.737Z,9.70
2018-02-04T19:50:47.737Z,14.98
2018-02-04T19:53:16.630Z,12.13
2018-02-04T19:55:44.882Z,13.40
2018-02-04T19:58:12.879Z,12.05
2018-02-04T20:00:40.903Z,13.30
2018-02-04T20:03:09.688Z,9.48
2018-02-04T20:05:37.674Z,11.27
2018-02-04T20:08:06.444Z,12.07
2018-02-04T20:10:34.449Z,12.45
2018-02-04T20:13:03.216Z,10.23
2018-02-04T20:15:31.241Z,11.82
2018-02-04T20:18:00.028Z,11.48
2018-02-04T20:20:28.932Z,10.10
2018-02-04T20:22:56.932Z,11.68
2018-02-04T20:25:25.712Z,12.50
2018-02-04T20:27:53.738Z,11.30
2018-02-04T20:30:21.748Z,12.27
2018-02-04T20:33:01.618Z,10.38
2018-02-04T20:35:29.625Z,14.00
2018-02-04T20:37:57.640Z,15.77
2018-02-04T20:40:26.404Z,15.50
2018-02-04T20:42:54.409Z,9.55
2018-02-04T20:45:23.184Z,13.15
2018-02-04T20:47:51.171Z,11.32
2018-02-04T20:50:19.179Z,14.10
2018-02-04T20:52:47.992Z,13.50
2018-02-04T20:55:15.979Z,17.85
2018-02-04T20:57:44.015Z,16.58
2018-02-04T21:00:12.008Z,10.85
2018-02-04T21:02:40.623Z,13.30
2018-02-04T21:05:08.661Z,12.35
2018-02-04T21:07:37.875Z,15.68
2018-02-04T21:10:05.852Z,8.77
2018-02-04T21:12:33.863Z,18.05
2018-02-04T21:15:01.881Z,17.95
2018-02-04T21:17:30.796Z,16.70
2018-02-04T21:20:01.484Z,15.00
2018-02-04T21:22:29.492Z,19.05
2018-02-04T21:24:58.259Z,13.52
2018-02-04T21:27:26.271Z,15.77
2018-02-04T21:29:54.329Z,8.57
2018-02-04T21:32:23.051Z,16.02
2018-02-04T21:34:51.065Z,13.40
2018-02-04T21:37:19.844Z,13.68
2018-02-04T21:39:47.832Z,11.52
2018-02-04T21:42:16.617Z,10.65
2018-02-04T21:44:44.625Z,9.77
2018-02-04T21:47:13.383Z,14.20
2018-02-04T21:49:41.397Z,12.25
2018-02-04T21:52:09.424Z,12.93
2018-02-04T21:54:37.426Z,10.98
2018-02-04T21:57:05.432Z,12.88
2018-02-04T21:59:33.435Z,12.15
2018-02-04T22:02:02.204Z,14.48
2018-02-04T22:04:30.187Z,15.05
2018-02-04T22:06:58.200Z,12.52
2018-02-04T22:09:26.944Z,11.20
2018-02-04T22:11:54.952Z,8.98
2018-02-04T22:14:22.960Z,12.70
2018-02-04T22:16:52.032Z,10.63
2018-02-04T22:19:20.033Z,11.45
2018-02-04T22:21:48.047Z,10.93
2018-02-04T22:24:16.825Z,12.05
2018-02-04T22:26:45.136Z,14.02
2018-02-04T22:29:13.915Z,9.93
2018-02-04T22:31:41.904Z,11.93
2018-02-04T22:34:10.684Z,11.88
2018-02-04T22:36:38.691Z,12.98
2018-02-04T22:39:07.440Z,11.05
2018-02-04T22:41:35.444Z,11.45
2018-02-04T22:44:03.448Z,9.52
2018-02-04T22:46:31.443Z,13.05
2018-02-04T22:49:00.217Z,14.32
2018-02-04T22:51:28.228Z,10.80
2018-02-04T22:53:56.980Z,13.82
2018-02-04T22:56:25.004Z,13.55
2018-02-04T22:58:53.772Z,14.10
2018-02-04T23:01:22.365Z,8.70
2018-02-04T23:03:50.360Z,10.05
2018-02-04T23:06:18.368Z,7.65
2018-02-04T23:08:46.385Z,10.77
2018-02-04T23:11:14.405Z,10.80
2018-02-04T23:13:42.412Z,13.48
2018-02-04T23:16:11.192Z,12.23
2018-02-04T23:18:39.192Z,11.50
2018-02-04T23:21:07.211Z,10.23
2018-02-04T23:23:35.225Z,11.48
2018-02-04T23:26:03.234Z,8.50
2018-02-04T23:28:31.249Z,15.38
2018-02-04T23:31:00.404Z,12.77
2018-02-04T23:33:28.400Z,12.40
2018-02-04T23:35:56.408Z,13.43
2018-02-04T23:38:25.165Z,13.82
2018-02-04T23:40:53.206Z,11.55
2018-02-04T23:43:22.600Z,9.55
2018-02-04T23:45:51.365Z,13.02
2018-02-04T23:48:19.372Z,14.55
2018-02-04T23:50:47.380Z,9.07
2018-02-04T23:53:16.136Z,13.55
2018-02-04T23:55:44.144Z,12.93
2018-02-04T23:58:12.171Z,12.15
